createdAt,value
2022-09-09T00:02:05.640Z,7.31
2022-09-09T00:04:35.984Z,7.21
2022-09-09T00:07:23.064Z,7.24
2022-09-09T00:10:20.331Z,7.42
2022-09-09T00:13:33.071Z,7.47
2022-09-09T00:16:20.213Z,7.48
2022-09-09T00:19:16.676Z,7.46
2022-09-09T00:21:58.944Z,7.53
2022-09-09T00:24:31.079Z,7.49
2022-09-09T00:27:11.987Z,7.38
2022-09-09T00:29:48.446Z,7.32
2022-09-09T00:32:18.620Z,7.26
2022-09-09T00:35:12.008Z,7.44
2022-09-09T00:37:41.222Z,7.49
2022-09-09T00:40:27.873Z,7.19
2022-09-09T00:43:31.483Z,7.39
2022-09-09T00:46:01.521Z,7.28
2022-09-09T00:48:41.898Z,7.20
2022-09-09T00:51:18.474Z,7.10
2022-09-09T00:54:07.861Z,7.22
2022-09-09T00:57:16.784Z,7.30
2022-09-09T00:59:51.501Z,7.21
2022-09-09T01:02:47.489Z,7.36
2022-09-09T01:05:25.397Z,7.20
2022-09-09T01:07:56.378Z,7.24
2022-09-09T01:10:48.712Z,7.31
2022-09-09T01:13:36.971Z,7.40
2022-09-09T01:16:14.652Z,7.36
2022-09-09T01:18:50.592Z,7.32
2022-09-09T01:21:49.654Z,7.39
2022-09-09T01:24:55.877Z,7.30
2022-09-09T01:27:44.635Z,7.11
2022-09-09T01:30:15.047Z,7.24
2022-09-09T01:32:44.829Z,7.27
2022-09-09T01:35:33.922Z,7.18
2022-09-09T01:38:02.876Z,7.26
2022-09-09T01:40:30.401Z,7.21
2022-09-09T01:42:59.054Z,7.17
2022-09-09T01:45:26.515Z,7.15
2022-09-09T01:47:54.319Z,7.00
2022-09-09T01:50:42.328Z,7.10
2022-09-09T01:53:09.833Z,7.17
2022-09-09T01:55:43.580Z,7.10
2022-09-09T01:58:34.747Z,7.21
2022-09-09T02:01:11.413Z,7.23
2022-09-09T02:03:39.375Z,7.23
2022-09-09T02:06:35.022Z,7.10
2022-09-09T02:09:13.946Z,7.10
2022-09-09T02:11:45.765Z,6.98
2022-09-09T02:14:26.426Z,7.16
2022-09-09T02:17:11.789Z,7.29
2022-09-09T02:20:05.867Z,7.25
2022-09-09T02:22:45.475Z,7.27
2022-09-09T02:25:18.836Z,7.29
2022-09-09T02:27:49.307Z,7.22
2022-09-09T02:30:17.095Z,7.24
2022-09-09T02:32:53.545Z,7.22
2022-09-09T02:35:25.703Z,7.29
2022-09-09T02:37:56.529Z,7.34
2022-09-09T02:40:24.448Z,7.24
2022-09-09T02:42:58.775Z,7.23
2022-09-09T02:45:35.617Z,7.24
2022-09-09T02:48:19.035Z,7.15
2022-09-09T02:51:15.187Z,7.09
2022-09-09T02:54:00.945Z,7.14
2022-09-09T02:56:34.811Z,7.14
2022-09-09T02:59:05.586Z,6.98
2022-09-09T03:01:36.743Z,7.08
2022-09-09T03:04:06.458Z,7.04
2022-09-09T03:06:34.305Z,6.96
2022-09-09T03:09:11.638Z,6.87
2022-09-09T03:11:39.668Z,7.05
2022-09-09T03:14:07.735Z,7.16
2022-09-09T03:16:35.920Z,7.11
2022-09-09T03:19:03.057Z,7.02
2022-09-09T03:21:30.578Z,7.00
2022-09-09T03:23:58.339Z,6.93
2022-09-09T03:26:25.558Z,7.02
2022-09-09T03:28:53.263Z,6.89
2022-09-09T03:31:23.312Z,6.98
2022-09-09T03:33:51.355Z,6.84
2022-09-09T03:36:20.382Z,6.86
2022-09-09T03:38:47.439Z,6.61
2022-09-09T03:41:15.460Z,6.90
2022-09-09T03:43:43.468Z,6.88
2022-09-09T03:46:10.665Z,6.95
2022-09-09T03:48:38.411Z,6.78
2022-09-09T03:51:06.159Z,6.64
2022-09-09T03:53:35.360Z,6.55
2022-09-09T03:56:04.304Z,6.66
2022-09-09T03:58:32.341Z,6.73
2022-09-09T04:01:14.457Z,6.82
2022-09-09T04:03:43.490Z,6.76
2022-09-09T04:06:14.361Z,6.92
2022-09-09T04:08:43.046Z,6.90
2022-09-09T04:11:10.808Z,6.90
2022-09-09T04:13:40.315Z,6.79
2022-09-09T04:16:12.593Z,6.78
2022-09-09T04:18:41.828Z,6.63
2022-09-09T04:21:11.204Z,6.68
2022-09-09T04:23:38.259Z,6.77
2022-09-09T04:26:06.673Z,6.80
2022-09-09T04:28:37.498Z,7.01
2022-09-09T04:31:19.015Z,6.77
2022-09-09T04:33:47.624Z,6.69
2022-09-09T04:36:15.191Z,6.87
2022-09-09T04:38:43.741Z,6.83
2022-09-09T04:41:12.268Z,6.89
2022-09-09T04:43:42.150Z,7.02
2022-09-09T04:46:10.109Z,7.20
2022-09-09T04:48:37.436Z,7.21
2022-09-09T04:51:10.498Z,7.28
2022-09-09T04:53:38.403Z,7.36
2022-09-09T04:56:11.184Z,7.34
2022-09-09T04:58:44.124Z,7.45
2022-09-09T05:01:15.237Z,7.25
2022-09-09T05:03:48.788Z,7.37
2022-09-09T05:06:21.820Z,7.46
2022-09-09T05:08:51.967Z,7.59
2022-09-09T05:11:26.885Z,7.78
2022-09-09T05:13:58.532Z,7.62
2022-09-09T05:16:25.938Z,7.56
2022-09-09T05:18:53.305Z,7.75
2022-09-09T05:21:22.812Z,7.90
2022-09-09T05:23:51.907Z,8.00
2022-09-09T05:26:21.973Z,7.95
2022-09-09T05:28:51.102Z,8.04
2022-09-09T05:31:20.137Z,7.99
2022-09-09T05:33:50.612Z,8.06
2022-09-09T05:36:21.343Z,8.17
2022-09-09T05:38:51.479Z,8.31
2022-09-09T05:41:21.023Z,8.45
2022-09-09T05:43:50.084Z,8.53
2022-09-09T05:46:21.001Z,8.64
2022-09-09T05:48:51.976Z,8.58
2022-09-09T05:51:23.446Z,8.63
2022-09-09T05:53:52.286Z,8.46
2022-09-09T05:56:26.313Z,8.54
2022-09-09T05:58:55.127Z,8.43
2022-09-09T06:01:28.424Z,8.43
2022-09-09T06:03:56.098Z,8.51
2022-09-09T06:06:29.740Z,8.71
2022-09-09T06:08:59.251Z,8.68
2022-09-09T06:11:32.469Z,9.04
2022-09-09T06:14:01.196Z,9.26
2022-09-09T06:16:31.667Z,8.92
2022-09-09T06:19:00.716Z,9.13
2022-09-09T06:21:31.227Z,9.28
2022-09-09T06:24:01.350Z,9.05
2022-09-09T06:26:35.096Z,9.17
2022-09-09T06:29:05.084Z,9.18
2022-09-09T06:31:35.584Z,9.19
2022-09-09T06:34:12.624Z,9.31
2022-09-09T06:36:42.637Z,9.51
2022-09-09T06:39:14.619Z,9.50
2022-09-09T06:41:43.832Z,9.43
2022-09-09T06:44:35.195Z,9.78
2022-09-09T06:47:03.803Z,9.69
2022-09-09T06:49:32.069Z,9.75
2022-09-09T06:51:59.596Z,9.69
2022-09-09T06:54:29.593Z,9.73
2022-09-09T06:56:56.871Z,9.78
2022-09-09T06:59:25.458Z,9.90
2022-09-09T07:01:56.532Z,10.24
2022-09-09T07:04:24.927Z,10.07
2022-09-09T07:06:53.613Z,10.05
2022-09-09T07:09:26.127Z,9.78
2022-09-09T07:11:54.573Z,9.63
2022-09-09T07:14:23.819Z,9.78
2022-09-09T07:17:01.414Z,9.95
2022-09-09T07:19:35.167Z,10.12
2022-09-09T07:22:04.701Z,10.07
2022-09-09T07:24:32.799Z,10.22
2022-09-09T07:27:00.668Z,10.10
2022-09-09T07:29:28.139Z,10.14
2022-09-09T07:32:14.063Z,10.07
2022-09-09T07:34:41.194Z,10.45
2022-09-09T07:37:09.054Z,10.92
2022-09-09T07:39:36.831Z,11.05
2022-09-09T07:42:05.405Z,10.97
2022-09-09T07:44:35.898Z,10.63
2022-09-09T07:47:12.346Z,10.28
2022-09-09T07:49:43.801Z,10.20
2022-09-09T07:52:12.593Z,10.52
2022-09-09T07:54:43.673Z,10.64
2022-09-09T07:57:11.692Z,11.04
2022-09-09T07:59:39.229Z,11.64
2022-09-09T08:02:06.574Z,11.79
2022-09-09T08:04:36.078Z,11.45
2022-09-09T08:07:04.483Z,11.34
2022-09-09T08:09:37.630Z,11.04
2022-09-09T08:12:14.129Z,10.98
2022-09-09T08:14:41.461Z,10.79
2022-09-09T08:17:09.225Z,10.61
2022-09-09T08:19:37.022Z,10.48
2022-09-09T08:22:09.576Z,10.42
2022-09-09T08:24:39.450Z,10.58
2022-09-09T08:27:06.658Z,10.66
2022-09-09T08:29:33.897Z,10.73
2022-09-09T08:32:01.118Z,10.60
2022-09-09T08:34:31.374Z,10.63
2022-09-09T08:37:01.195Z,11.01
2022-09-09T08:39:38.643Z,11.25
2022-09-09T08:42:12.848Z,11.59
2022-09-09T08:45:27.601Z,11.66
2022-09-09T08:48:03.969Z,11.44
2022-09-09T08:50:41.867Z,11.48
2022-09-09T08:53:27.743Z,11.39
2022-09-09T08:56:00.976Z,11.29
2022-09-09T08:58:41.677Z,11.07
2022-09-09T09:01:41.864Z,10.80
2022-09-09T09:04:26.800Z,11.00
2022-09-09T09:07:22.310Z,11.02
2022-09-09T09:10:42.954Z,11.11
2022-09-09T09:13:25.700Z,11.47
2022-09-09T09:16:03.274Z,11.99
2022-09-09T09:18:30.566Z,12.05
2022-09-09T09:21:16.195Z,11.81
2022-09-09T09:23:57.413Z,11.34
2022-09-09T09:26:36.296Z,11.38
2022-09-09T09:29:17.441Z,11.29
2022-09-09T09:31:58.437Z,11.35
2022-09-09T09:34:26.637Z,11.55
2022-09-09T09:37:04.625Z,11.61
2022-09-09T09:42:28.232Z,11.06
2022-09-09T09:45:08.079Z,11.11
2022-09-09T09:47:35.614Z,11.51
2022-09-09T09:50:21.503Z,11.91
2022-09-09T09:52:58.449Z,11.89
2022-09-09T09:55:28.562Z,11.81
2022-09-09T09:58:02.831Z,11.55
2022-09-09T10:00:30.432Z,11.72
2022-09-09T10:03:22.563Z,11.74
2022-09-09T10:05:50.872Z,11.73
2022-09-09T10:08:18.618Z,11.57
2022-09-09T10:11:04.257Z,11.73
2022-09-09T10:13:43.293Z,11.52
2022-09-09T10:16:37.791Z,11.63
2022-09-09T10:19:16.418Z,11.67
2022-09-09T10:21:44.019Z,11.79
2022-09-09T10:24:16.867Z,11.91
2022-09-09T10:26:58.320Z,12.13
2022-09-09T10:29:39.060Z,12.12
2022-09-09T10:32:44.340Z,11.69
2022-09-09T10:35:36.144Z,11.67
2022-09-09T10:38:24.337Z,11.68
2022-09-09T10:40:54.293Z,11.40
2022-09-09T10:43:41.902Z,11.37
2022-09-09T10:46:37.148Z,11.56
2022-09-09T10:49:23.840Z,11.85
2022-09-09T10:52:08.652Z,11.76
2022-09-09T10:54:47.848Z,11.93
2022-09-09T10:57:28.117Z,12.17
2022-09-09T11:00:01.041Z,12.13
2022-09-09T11:02:31.321Z,11.99
2022-09-09T11:05:04.950Z,11.80
2022-09-09T11:07:44.219Z,11.79
2022-09-09T11:10:35.464Z,11.65
2022-09-09T11:13:06.635Z,11.46
2022-09-09T11:15:42.779Z,11.87
2022-09-09T11:18:18.381Z,11.77
2022-09-09T11:20:48.572Z,11.96
2022-09-09T11:23:27.062Z,12.10
2022-09-09T11:25:58.766Z,12.30
2022-09-09T11:28:50.426Z,12.33
2022-09-09T11:31:39.037Z,12.17
2022-09-09T11:34:43.060Z,12.26
2022-09-09T11:37:22.376Z,12.17
2022-09-09T11:40:07.981Z,12.37
2022-09-09T11:42:35.706Z,12.47
2022-09-09T11:45:23.117Z,12.63
2022-09-09T11:47:55.816Z,12.34
2022-09-09T11:50:22.903Z,12.23
2022-09-09T11:52:51.082Z,12.28
2022-09-09T11:55:28.223Z,12.47
2022-09-09T11:58:06.500Z,12.74
2022-09-09T12:00:48.104Z,12.43
2022-09-09T12:03:46.164Z,12.24
2022-09-09T12:06:34.447Z,12.32
2022-09-09T12:09:35.655Z,12.01
2022-09-09T12:12:27.119Z,11.98
2022-09-09T12:15:18.519Z,11.92
2022-09-09T12:17:51.791Z,11.51
2022-09-09T12:20:32.426Z,11.62
2022-09-09T12:23:36.953Z,11.63
2022-09-09T12:26:31.688Z,11.82
2022-09-09T12:29:10.698Z,11.84
2022-09-09T12:31:58.108Z,11.90
2022-09-09T12:34:40.368Z,11.91
2022-09-09T12:37:14.136Z,12.02
2022-09-09T12:39:50.740Z,12.20
2022-09-09T12:42:23.275Z,12.18
2022-09-09T12:44:55.282Z,12.23
2022-09-09T12:47:45.686Z,12.46
2022-09-09T12:50:27.570Z,12.04
2022-09-09T12:53:03.061Z,12.10
2022-09-09T12:55:34.665Z,12.16
2022-09-09T12:58:07.352Z,12.26
2022-09-09T13:00:36.248Z,12.45
2022-09-09T13:03:18.289Z,12.49
2022-09-09T13:05:45.832Z,12.50
2022-09-09T13:08:15.080Z,12.59
2022-09-09T13:10:53.701Z,12.69
2022-09-09T13:13:33.952Z,12.69
2022-09-09T13:16:02.851Z,12.66
2022-09-09T13:18:34.328Z,12.54
2022-09-09T13:21:01.704Z,12.46
2022-09-09T13:23:33.435Z,12.66
2022-09-09T13:26:08.724Z,12.74
2022-09-09T13:28:39.020Z,12.74
2022-09-09T13:31:20.206Z,12.64
2022-09-09T13:33:47.550Z,12.66
2022-09-09T13:36:18.376Z,12.47
2022-09-09T13:38:56.042Z,12.53
2022-09-09T13:41:35.092Z,12.50
2022-09-09T13:44:04.327Z,12.50
2022-09-09T13:46:36.599Z,12.38
2022-09-09T13:49:12.440Z,12.39
2022-09-09T13:52:16.615Z,12.43
2022-09-09T13:54:44.012Z,12.58
2022-09-09T13:57:19.236Z,12.33
2022-09-09T14:00:04.016Z,12.57
2022-09-09T14:02:32.294Z,12.59
2022-09-09T14:04:59.544Z,12.49
2022-09-09T14:07:26.814Z,12.50
2022-09-09T14:09:53.904Z,12.39
2022-09-09T14:12:22.692Z,12.36
2022-09-09T14:14:50.758Z,12.25
2022-09-09T14:17:18.553Z,12.25
2022-09-09T14:19:47.074Z,12.38
2022-09-09T14:22:14.585Z,12.33
2022-09-09T14:24:42.000Z,12.28
2022-09-09T14:27:09.898Z,12.39
2022-09-09T14:29:37.007Z,12.30
2022-09-09T14:32:04.185Z,12.24
2022-09-09T14:34:33.306Z,12.29
2022-09-09T14:37:00.598Z,12.38
2022-09-09T14:39:27.866Z,12.16
2022-09-09T14:41:55.184Z,12.17
2022-09-09T14:44:22.925Z,12.13
2022-09-09T14:46:51.312Z,11.89
2022-09-09T14:49:18.480Z,11.97
2022-09-09T14:51:45.646Z,12.14
2022-09-09T14:54:13.313Z,12.06
2022-09-09T14:56:40.531Z,12.03
2022-09-09T14:59:07.730Z,12.09
2022-09-09T15:01:35.359Z,12.22
2022-09-09T15:04:05.267Z,12.23
2022-09-09T15:06:34.783Z,11.90
2022-09-09T15:09:02.491Z,11.72
2022-09-09T15:11:33.162Z,11.85
2022-09-09T15:14:00.381Z,11.90
2022-09-09T15:16:29.427Z,11.80
2022-09-09T15:18:58.752Z,11.94
2022-09-09T15:21:28.606Z,11.93
2022-09-09T15:23:57.074Z,11.85
2022-09-09T15:26:25.100Z,11.83
2022-09-09T15:28:52.258Z,11.77
2022-09-09T15:31:27.867Z,11.71
2022-09-09T15:34:06.538Z,11.64
2022-09-09T15:36:38.906Z,11.59
2022-09-09T15:39:13.759Z,11.65
2022-09-09T15:41:41.139Z,11.64
2022-09-09T15:44:09.851Z,11.69
2022-09-09T15:46:39.988Z,11.55
2022-09-09T15:49:16.471Z,11.48
2022-09-09T15:51:46.408Z,11.45
2022-09-09T15:54:19.191Z,11.48
2022-09-09T15:56:51.043Z,11.41
2022-09-09T15:59:18.353Z,11.31
2022-09-09T16:01:45.702Z,11.34
2022-09-09T16:04:13.183Z,11.28
2022-09-09T16:06:40.523Z,11.29
2022-09-09T16:09:08.810Z,11.21
2022-09-09T16:11:38.557Z,11.09
2022-09-09T16:14:07.767Z,11.06
2022-09-09T16:16:36.327Z,11.01
2022-09-09T16:19:08.630Z,11.04
2022-09-09T16:21:38.734Z,11.04
2022-09-09T16:24:07.947Z,11.03
2022-09-09T16:26:37.797Z,10.98
2022-09-09T16:29:05.767Z,10.92
2022-09-09T16:31:33.325Z,10.95
2022-09-09T16:34:00.923Z,11.00
2022-09-09T16:36:31.430Z,10.91
2022-09-09T16:39:01.054Z,10.88
2022-09-09T16:41:30.019Z,10.80
2022-09-09T16:44:03.450Z,10.79
2022-09-09T16:46:33.225Z,10.74
2022-09-09T16:49:01.756Z,10.70
2022-09-09T16:51:35.499Z,10.67
2022-09-09T16:54:05.590Z,10.68
2022-09-09T16:56:38.063Z,10.65
2022-09-09T16:59:17.535Z,10.61
2022-09-09T17:01:47.346Z,10.60
2022-09-09T17:04:25.315Z,10.52
2022-09-09T17:06:54.833Z,10.55
2022-09-09T17:09:23.994Z,10.54
2022-09-09T17:11:53.183Z,10.51
2022-09-09T17:14:23.069Z,10.49
2022-09-09T17:16:50.815Z,10.46
2022-09-09T17:19:18.812Z,10.42
2022-09-09T17:22:15.607Z,10.40
2022-09-09T17:24:35.612Z,10.36
2022-09-09T17:27:03.448Z,10.45
2022-09-09T17:29:30.698Z,10.45
2022-09-09T17:32:00.952Z,10.33
2022-09-09T17:34:28.040Z,10.47
2022-09-09T17:36:55.326Z,10.44
2022-09-09T17:39:22.878Z,10.40
2022-09-09T17:41:50.026Z,10.39
2022-09-09T17:44:17.429Z,10.20
2022-09-09T17:46:46.372Z,10.01
2022-09-09T17:49:16.644Z,9.85
2022-09-09T17:51:44.796Z,9.93
2022-09-09T17:54:15.388Z,9.89
2022-09-09T17:56:43.240Z,9.82
2022-09-09T17:59:12.358Z,9.71
2022-09-09T18:01:41.558Z,9.83
2022-09-09T18:04:10.516Z,9.67
2022-09-09T18:06:51.531Z,9.80
2022-09-09T18:09:21.774Z,9.78
2022-09-09T18:11:51.677Z,9.71
2022-09-09T18:14:22.674Z,9.54
2022-09-09T18:16:50.755Z,9.58
2022-09-09T18:19:21.278Z,9.55
2022-09-09T18:21:49.264Z,9.45
2022-09-09T18:24:18.273Z,9.42
2022-09-09T18:26:45.751Z,9.39
2022-09-09T18:29:16.037Z,9.33
2022-09-09T18:31:43.356Z,9.28
2022-09-09T18:34:16.629Z,9.28
2022-09-09T18:36:46.941Z,9.34
2022-09-09T18:39:16.823Z,9.27
2022-09-09T18:41:49.482Z,9.39
2022-09-09T18:44:20.899Z,9.48
2022-09-09T18:46:49.353Z,9.38
2022-09-09T18:49:16.705Z,9.14
2022-09-09T18:51:46.565Z,9.13
2022-09-09T18:54:19.845Z,9.08
2022-09-09T18:56:47.859Z,9.01
2022-09-09T18:59:19.785Z,8.99
2022-09-09T19:01:48.706Z,8.98
2022-09-09T19:04:16.814Z,9.08
2022-09-09T19:06:47.372Z,9.14
2022-09-09T19:09:17.250Z,9.11
2022-09-09T19:11:45.112Z,8.93
2022-09-09T19:14:15.478Z,8.86
2022-09-09T19:16:44.499Z,8.91
2022-09-09T19:19:27.596Z,8.96
2022-09-09T19:21:58.008Z,8.95
2022-09-09T19:24:28.127Z,8.94
2022-09-09T19:27:02.031Z,8.88
2022-09-09T19:29:32.663Z,8.82
2022-09-09T19:32:42.238Z,8.73
2022-09-09T19:34:50.815Z,8.76
2022-09-09T19:37:18.869Z,8.81
2022-09-09T19:39:47.219Z,8.92
2022-09-09T19:42:14.696Z,8.85
2022-09-09T19:44:41.821Z,8.56
2022-09-09T19:47:09.021Z,8.48
2022-09-09T19:49:37.309Z,8.39
2022-09-09T19:52:04.867Z,8.34
2022-09-09T19:54:32.494Z,8.39
2022-09-09T19:57:01.254Z,8.35
2022-09-09T19:59:28.564Z,8.42
2022-09-09T20:01:59.176Z,8.38
2022-09-09T20:04:26.457Z,8.32
2022-09-09T20:06:54.093Z,8.38
2022-09-09T20:09:21.844Z,8.30
2022-09-09T20:11:49.678Z,8.38
2022-09-09T20:14:18.287Z,8.35
2022-09-09T20:16:46.486Z,8.36
2022-09-09T20:19:16.368Z,8.28
2022-09-09T20:21:48.608Z,8.17
2022-09-09T20:24:19.467Z,8.16
2022-09-09T20:26:47.415Z,8.19
2022-09-09T20:29:17.729Z,8.14
2022-09-09T20:31:45.446Z,8.13
2022-09-09T20:34:15.277Z,8.01
2022-09-09T20:36:42.590Z,8.04
2022-09-09T20:39:15.685Z,8.10
2022-09-09T20:41:44.635Z,8.05
2022-09-09T20:44:15.585Z,8.01
2022-09-09T20:46:48.099Z,8.01
2022-09-09T20:49:17.142Z,7.95
2022-09-09T20:51:45.562Z,7.98
2022-09-09T20:54:15.919Z,7.99
2022-09-09T20:56:44.539Z,7.99
2022-09-09T20:59:18.444Z,8.04
2022-09-09T21:01:47.786Z,8.10
2022-09-09T21:04:17.559Z,8.02
2022-09-09T21:06:45.017Z,8.03
2022-09-09T21:09:12.659Z,7.94
2022-09-09T21:11:40.175Z,7.82
2022-09-09T21:14:07.293Z,7.85
2022-09-09T21:16:34.381Z,7.78
2022-09-09T21:19:01.559Z,7.76
2022-09-09T21:21:28.729Z,7.63
2022-09-09T21:23:57.494Z,7.72
2022-09-09T21:26:25.467Z,7.70
2022-09-09T21:28:53.729Z,7.65
2022-09-09T21:31:27.015Z,7.59
2022-09-09T21:33:54.904Z,7.63
2022-09-09T21:36:21.973Z,7.67
2022-09-09T21:38:49.054Z,7.61
2022-09-09T21:41:16.925Z,7.56
2022-09-09T21:43:45.604Z,7.65
2022-09-09T21:46:16.167Z,7.78
2022-09-09T21:48:43.545Z,7.79
2022-09-09T21:51:13.461Z,7.72
2022-09-09T21:53:41.035Z,7.47
2022-09-09T21:56:12.271Z,7.50
2022-09-09T21:58:40.907Z,7.59
2022-09-09T22:01:14.903Z,7.59
2022-09-09T22:03:42.796Z,7.57
2022-09-09T22:06:14.008Z,7.42
2022-09-09T22:08:41.656Z,7.56
2022-09-09T22:11:12.152Z,7.50
2022-09-09T22:13:39.365Z,7.48
2022-09-09T22:16:08.184Z,7.44
2022-09-09T22:18:36.092Z,7.43
2022-09-09T22:21:08.389Z,7.41
2022-09-09T22:23:36.584Z,7.35
2022-09-09T22:26:04.931Z,7.36
2022-09-09T22:28:33.071Z,7.32
2022-09-09T22:31:00.951Z,7.31
2022-09-09T22:33:28.176Z,7.21
2022-09-09T22:35:55.367Z,7.12
2022-09-09T22:38:22.511Z,7.18
2022-09-09T22:40:49.958Z,7.08
2022-09-09T22:43:19.728Z,7.14
2022-09-09T22:45:47.375Z,7.10
2022-09-09T22:48:15.120Z,7.08
2022-09-09T22:50:42.842Z,6.94
2022-09-09T22:53:16.216Z,7.07
2022-09-09T22:55:43.892Z,7.03
2022-09-09T22:58:11.156Z,7.12
2022-09-09T23:00:41.176Z,7.08
2022-09-09T23:03:08.351Z,7.07
2022-09-09T23:05:38.792Z,7.02
2022-09-09T23:08:06.017Z,6.98
2022-09-09T23:10:33.768Z,6.98
2022-09-09T23:13:01.708Z,6.97
2022-09-09T23:15:31.431Z,6.96
2022-09-09T23:17:58.758Z,6.91
2022-09-09T23:20:26.895Z,6.95
2022-09-09T23:22:54.421Z,6.91
2022-09-09T23:25:22.878Z,6.89
2022-09-09T23:27:50.000Z,6.96
2022-09-09T23:30:17.873Z,6.99
2022-09-09T23:32:47.002Z,7.00
2022-09-09T23:35:14.210Z,7.00
2022-09-09T23:37:41.437Z,6.93
2022-09-09T23:40:08.868Z,6.89
2022-09-09T23:42:36.039Z,6.73
2022-09-09T23:45:03.171Z,6.85
2022-09-09T23:47:31.449Z,6.84
2022-09-09T23:49:59.278Z,6.81
2022-09-09T23:52:26.708Z,6.78
2022-09-09T23:54:53.772Z,6.75
2022-09-09T23:57:21.881Z,6.71
2022-09-09T23:59:49.065Z,6.57
